Time;durP1;ratioP1;P1;durP2;ratioP2;P2;SDS_P1;SDS_P2;PMS_P1;PMS_P2;Temp;Humidity;BMP_temperature;BMP_pressure;BME280_temperature;BME280_humidity;BME280_pressure;Samples;Min_cycle;Max_cycle;Signal;HPM_P1;HPM_P2
2020/12/24 00:00:00;;;;;;;2.27;1.60;;;;;;;10.59;83.33;98064.26;119939;1144;65172;-91
2020/12/24 00:02:27;;;;;;;3.73;2.20;;;;;;;10.68;83.19;98060.77;120214;1144;65111;-90
2020/12/24 00:04:54;;;;;;;4.60;2.13;;;;;;;10.71;83.19;98048.00;120007;1144;65461;-90
2020/12/24 00:07:20;;;;;;;3.50;1.80;;;;;;;10.74;83.09;98049.55;119961;1144;65086;-93
2020/12/24 00:09:46;;;;;;;4.53;1.95;;;;;;;10.71;83.26;98055.17;120184;1144;65137;-92
2020/12/24 00:12:13;;;;;;;1.97;1.70;;;;;;;10.69;82.80;98055.31;119999;1144;65543;-90
2020/12/24 00:14:41;;;;;;;4.07;2.17;;;;;;;10.66;83.42;98066.25;120029;1144;65117;-90
2020/12/24 00:17:07;;;;;;;3.80;2.40;;;;;;;10.63;82.83;98065.69;120412;1144;65021;-88
2020/12/24 00:19:33;;;;;;;4.00;2.13;;;;;;;10.60;83.59;98058.78;119933;1144;65076;-90
2020/12/24 00:22:00;;;;;;;6.70;2.50;;;;;;;10.59;83.48;98051.75;120131;1144;65242;-87
2020/12/24 00:24:26;;;;;;;3.80;1.77;;;;;;;10.63;83.70;98039.84;119997;1144;65159;-89
2020/12/24 00:26:53;;;;;;;3.30;1.62;;;;;;;10.69;83.26;98012.59;120096;1145;65092;-86
2020/12/24 00:29:19;;;;;;;2.17;1.80;;;;;;;10.73;82.68;98011.31;120385;1144;65166;-87
2020/12/24 00:31:46;;;;;;;2.83;1.90;;;;;;;10.78;82.73;98024.27;120206;1143;65175;-89
2020/12/24 00:34:12;;;;;;;2.40;1.87;;;;;;;10.87;83.08;98039.45;120169;1144;64996;-86
2020/12/24 00:36:39;;;;;;;2.47;1.83;;;;;;;10.93;82.81;98038.91;120122;1144;65194;-87
2020/12/24 00:39:05;;;;;;;2.73;1.70;;;;;;;10.99;82.57;98035.69;119921;1144;65079;-90
2020/12/24 00:41:31;;;;;;;2.40;1.30;;;;;;;11.03;83.00;98031.77;119943;1144;65086;-87
2020/12/24 00:43:58;;;;;;;2.73;1.80;;;;;;;11.04;82.54;98037.95;119951;1144;65086;-89
2020/12/24 00:46:24;;;;;;;1.90;1.60;;;;;;;11.07;82.69;98043.88;120351;1144;65156;-88
2020/12/24 00:48:51;;;;;;;2.80;1.60;;;;;;;11.10;82.20;98046.26;119836;1144;65142;-94
2020/12/24 00:51:17;;;;;;;2.67;1.80;;;;;;;11.15;82.67;98047.68;120249;1144;65082;-90
2020/12/24 00:53:44;;;;;;;2.87;1.70;;;;;;;11.20;82.20;98056.13;119891;1144;65516;-91
2020/12/24 00:56:10;;;;;;;3.20;1.40;;;;;;;11.22;82.33;98057.67;119965;1144;65133;-87
2020/12/24 00:58:38;;;;;;;4.27;1.40;;;;;;;11.26;81.79;98050.20;120133;1144;65145;-88
2020/12/24 01:01:06;;;;;;;7.40;1.70;;;;;;;11.26;82.46;98047.53;120043;1143;65076;-89
2020/12/24 01:03:32;;;;;;;4.13;1.90;;;;;;;11.26;82.28;98055.55;119919;1144;65095;-93
2020/12/24 01:05:59;;;;;;;2.53;1.50;;;;;;;11.24;82.16;98052.18;120159;1144;65066;-89
2020/12/24 01:08:25;;;;;;;5.90;1.70;;;;;;;11.20;81.25;98051.63;119977;1144;65086;-88
2020/12/24 01:10:53;;;;;;;2.30;1.40;;;;;;;11.24;81.88;98057.53;120173;1144;65102;-90
2020/12/24 01:13:19;;;;;;;1.27;1.13;;;;;;;11.27;81.55;98051.92;120034;1144;65028;-90
2020/12/24 01:15:46;;;;;;;2.43;1.60;;;;;;;11.28;81.77;98056.28;119936;1143;65070;-88
2020/12/24 01:18:12;;;;;;;1.93;1.63;;;;;;;11.27;81.01;98057.27;120013;1144;65146;-87
2020/12/24 01:20:39;;;;;;;2.77;1.67;;;;;;;11.30;81.70;98062.31;120035;1144;65018;-89
2020/12/24 01:23:05;;;;;;;1.67;1.40;;;;;;;11.29;80.97;98063.30;119917;1144;65113;-88
2020/12/24 01:25:32;;;;;;;1.50;1.40;;;;;;;11.34;80.78;98074.43;119760;1144;65117;-90
2020/12/24 01:27:59;;;;;;;4.77;1.80;;;;;;;11.40;81.45;98065.02;120058;1143;65146;-90
2020/12/24 01:30:26;;;;;;;1.10;1.00;;;;;;;11.36;80.84;98067.11;120014;1143;65083;-90
2020/12/24 01:32:53;;;;;;;1.83;1.20;;;;;;;11.33;80.84;98062.05;119954;1144;65073;-88
2020/12/24 01:35:20;;;;;;;2.23;1.40;;;;;;;11.34;80.60;98056.56;120265;1144;65069;-86
2020/12/24 01:37:47;;;;;;;2.73;1.53;;;;;;;11.32;80.94;98061.21;119928;1144;65158;-88
2020/12/24 01:40:14;;;;;;;4.57;1.17;;;;;;;11.29;81.22;98065.98;120016;1144;65056;-91
2020/12/24 01:42:40;;;;;;;2.03;1.10;;;;;;;11.22;81.15;98067.52;119900;1144;65126;-88
2020/12/24 01:45:07;;;;;;;1.40;1.17;;;;;;;11.15;81.15;98071.73;120083;1144;65091;-87
2020/12/24 01:47:34;;;;;;;1.83;1.23;;;;;;;11.07;81.29;98067.92;120169;1144;65092;-89
2020/12/24 01:50:00;;;;;;;1.17;1.07;;;;;;;11.05;81.12;98058.34;119988;1144;65152;-86
2020/12/24 01:52:32;;;;;;;1.03;0.80;;;;;;;11.08;81.17;98058.08;119895;1144;65006;-86
2020/12/24 01:55:00;;;;;;;1.70;1.27;;;;;;;11.14;80.90;98064.70;120293;1143;65059;-90
2020/12/24 01:57:26;;;;;;;1.70;1.00;;;;;;;11.10;80.87;98058.77;120076;1143;65082;-91
2020/12/24 01:59:56;;;;;;;1.43;0.80;;;;;;;11.08;80.63;98055.41;119907;1144;65025;-87
2020/12/24 02:02:23;;;;;;;1.17;0.73;;;;;;;11.13;81.07;98045.13;119974;1144;65149;-88
2020/12/24 02:04:50;;;;;;;1.87;1.20;;;;;;;11.17;80.95;98045.70;119937;1144;65092;-91
2020/12/24 02:07:18;;;;;;;1.57;1.07;;;;;;;11.13;81.12;98050.47;120248;1144;65094;-89
2020/12/24 02:09:48;;;;;;;1.30;0.80;;;;;;;11.13;80.69;98049.63;120045;1144;65020;-89
2020/12/24 02:12:15;;;;;;;1.90;1.20;;;;;;;11.09;80.59;98039.23;119944;1144;65166;-91
2020/12/24 02:14:42;;;;;;;2.87;1.23;;;;;;;11.08;81.06;98048.23;119849;1144;65123;-88
2020/12/24 02:17:10;;;;;;;1.30;1.20;;;;;;;11.01;80.40;98039.09;120067;1144;65111;-89
2020/12/24 02:19:37;;;;;;;3.00;1.20;;;;;;;10.93;80.53;98032.72;119912;1144;65076;-90
2020/12/24 02:22:03;;;;;;;1.23;1.10;;;;;;;10.85;80.46;98036.09;119820;1144;65113;-93
2020/12/24 02:24:30;;;;;;;2.53;1.43;;;;;;;10.86;80.29;98035.10;119997;1143;65086;-85
2020/12/24 02:26:57;;;;;;;2.70;1.30;;;;;;;10.83;80.30;98022.03;120042;1144;65024;-89
2020/12/24 02:29:24;;;;;;;1.73;1.30;;;;;;;10.87;79.82;98027.93;119884;1144;65577;-89
2020/12/24 02:31:52;;;;;;;1.20;0.93;;;;;;;10.95;79.31;98036.13;119863;1144;65097;-88
2020/12/24 02:34:19;;;;;;;0.90;0.90;;;;;;;10.96;80.18;98035.98;119882;1144;65091;-92
2020/12/24 02:36:47;;;;;;;1.10;1.00;;;;;;;10.93;80.36;98036.23;119892;1144;65089;-89
2020/12/24 02:39:14;;;;;;;1.15;1.00;;;;;;;10.87;80.18;98034.11;119906;1144;65136;-92
2020/12/24 02:41:42;;;;;;;1.63;0.90;;;;;;;10.87;80.31;98034.11;119847;1144;65089;-88
2020/12/24 02:44:09;;;;;;;1.57;0.93;;;;;;;10.89;79.26;98037.52;120456;1144;65117;-86
2020/12/24 02:46:36;;;;;;;2.07;0.90;;;;;;;10.92;80.11;98031.04;120104;1144;65013;-94
2020/12/24 02:49:04;;;;;;;1.33;1.20;;;;;;;10.89;79.35;98039.34;119810;1143;65066;-88
2020/12/24 02:51:31;;;;;;;2.35;1.05;;;;;;;10.93;79.64;98036.23;119892;1144;65306;-91
2020/12/24 02:53:59;;;;;;;1.43;1.00;;;;;;;10.98;79.28;98039.34;119953;1144;65044;-86
2020/12/24 02:56:26;;;;;;;1.90;1.03;;;;;;;11.00;79.96;98034.70;119841;1144;65262;-90
2020/12/24 02:58:53;;;;;;;1.33;1.00;;;;;;;10.99;79.63;98035.69;119922;1145;65545;-89
2020/12/24 03:01:20;;;;;;;1.35;1.20;;;;;;;11.03;79.21;98031.77;120347;1144;65169;-89
2020/12/24 03:03:46;;;;;;;2.80;1.33;;;;;;;11.07;79.43;98037.70;119930;1144;65060;-87
2020/12/24 03:06:13;;;;;;;1.20;1.10;;;;;;;11.07;79.51;98030.52;119931;1144;65092;-91
2020/12/24 03:08:39;;;;;;;4.67;2.13;;;;;;;11.05;79.31;98027.12;119880;1144;65127;-88
2020/12/24 03:11:05;;;;;;;4.70;1.53;;;;;;;11.08;79.43;98034.03;119967;1144;65155;-88
2020/12/24 03:13:32;;;;;;;2.70;1.80;;;;;;;11.10;77.69;98030.23;120272;1144;65128;-86
2020/12/24 03:15:58;;;;;;;3.50;1.75;;;;;;;11.23;79.34;98034.46;119952;1143;65172;-89
2020/12/24 03:18:24;;;;;;;8.10;1.97;;;;;;;11.20;78.51;98024.91;119833;1144;65128;-89
2020/12/24 03:20:51;;;;;;;6.85;2.40;;;;;;;11.16;78.26;98023.48;119859;1144;65075;-90
2020/12/24 03:23:17;;;;;;;4.43;2.23;;;;;;;11.10;79.01;98022.21;120391;1144;65531;-86
2020/12/24 03:25:43;;;;;;;4.70;1.90;;;;;;;11.07;78.56;98032.34;119917;1144;65149;-89
2020/12/24 03:28:10;;;;;;;4.28;1.90;;;;;;;11.10;78.41;98024.05;119906;1143;65172;-89
2020/12/24 03:30:36;;;;;;;3.53;2.23;;;;;;;11.09;78.30;98028.55;119972;1144;65098;-88
2020/12/24 03:33:03;;;;;;;2.30;1.73;;;;;;;11.06;79.08;98025.29;119980;1143;65082;-86
2020/12/24 03:35:29;;;;;;;3.67;1.70;;;;;;;11.02;78.50;98016.73;119885;1144;65162;-87
2020/12/24 03:37:56;;;;;;;3.60;1.50;;;;;;;10.97;78.60;98018.13;120383;1143;65259;-90
2020/12/24 03:40:22;;;;;;;4.20;1.50;;;;;;;10.96;78.69;98016.44;120028;1143;65062;-87
2020/12/24 03:42:48;;;;;;;2.13;1.20;;;;;;;10.97;78.18;97996.75;120171;1144;65218;-87
2020/12/24 03:45:15;;;;;;;1.43;1.10;;;;;;;11.00;78.72;97996.45;120045;1144;65107;-93
2020/12/24 03:47:42;;;;;;;1.27;1.10;;;;;;;10.98;78.54;98001.95;119879;1144;65119;-91
2020/12/24 03:50:08;;;;;;;1.30;1.20;;;;;;;10.92;78.75;97997.16;119837;1144;65156;-90
2020/12/24 03:52:35;;;;;;;1.67;1.10;;;;;;;10.88;78.17;97990.42;119891;1144;65155;-88
2020/12/24 03:55:02;;;;;;;5.37;1.20;;;;;;;10.91;77.54;97991.96;119832;1144;65120;-90
2020/12/24 03:57:28;;;;;;;1.77;1.20;;;;;;;10.93;78.47;97998.84;119962;1144;65089;-88
2020/12/24 03:59:54;;;;;;;3.20;1.00;;;;;;;10.93;78.61;97989.98;119837;1144;65024;-89
2020/12/24 04:02:21;;;;;;;3.60;1.20;;;;;;;10.90;77.66;97990.28;119870;1144;65085;-87
2020/12/24 04:04:47;;;;;;;1.50;1.07;;;;;;;10.94;77.73;97999.68;119853;1144;65117;-88
2020/12/24 04:07:13;;;;;;;2.30;1.60;;;;;;;10.97;77.45;98013.62;119904;1144;65058;-87
2020/12/24 04:09:40;;;;;;;3.47;1.50;;;;;;;10.94;78.19;98005.02;119865;1144;65219;-89
2020/12/24 04:12:06;;;;;;;1.57;1.03;;;;;;;10.93;77.39;98006.02;119829;1144;65021;-86
2020/12/24 04:14:33;;;;;;;1.63;1.23;;;;;;;10.92;77.64;97999.83;119901;1143;65219;-90
2020/12/24 04:16:59;;;;;;;1.43;1.00;;;;;;;10.91;77.81;98002.64;119816;1144;65090;-89
2020/12/24 04:19:26;;;;;;;1.10;0.90;;;;;;;10.90;78.02;98004.47;119841;1144;65184;-88
2020/12/24 04:21:52;;;;;;;3.47;1.50;;;;;;;10.88;77.46;97997.56;119876;1144;65152;-83
2020/12/24 04:24:19;;;;;;;2.73;1.30;;;;;;;10.90;77.24;97991.12;119853;1144;65601;-88
2020/12/24 04:26:45;;;;;;;0.80;0.80;;;;;;;10.90;77.54;97991.12;119870;1144;65122;-90
2020/12/24 04:29:11;;;;;;;1.80;1.00;;;;;;;10.91;77.52;97989.29;119835;1144;65122;-88
2020/12/24 04:31:42;;;;;;;1.17;0.93;;;;;;;10.86;77.54;97988.86;119928;1144;65453;-89
2020/12/24 04:34:10;;;;;;;3.00;1.67;;;;;;;10.81;77.82;97986.59;119892;1144;65197;-88
2020/12/24 04:36:36;;;;;;;3.53;1.80;;;;;;;10.74;77.92;97988.97;119991;1144;65635;-89
2020/12/24 04:39:04;;;;;;;3.43;2.80;;;;;;;10.69;78.23;97995.73;119931;1142;65252;-87
2020/12/24 04:41:30;;;;;;;7.37;4.27;;;;;;;10.61;77.85;97990.20;119823;1144;65171;-87
2020/12/24 04:43:58;;;;;;;10.93;5.87;;;;;;;10.54;77.80;97996.09;120328;1143;65091;-87
2020/12/24 04:46:28;;;;;;;14.40;4.70;;;;;;;10.49;78.31;97997.47;119712;1144;65101;-92
2020/12/24 04:48:58;;;;;;;9.47;3.90;;;;;;;10.40;78.57;98000.97;119937;1143;65085;-89
2020/12/24 04:51:25;;;;;;;7.30;3.43;;;;;;;10.31;78.43;98007.97;119865;1144;65606;-89
2020/12/24 04:53:53;;;;;;;7.33;2.93;;;;;;;10.23;77.87;98010.44;119845;1144;65065;-94
2020/12/24 04:56:19;;;;;;;5.67;3.03;;;;;;;10.14;78.39;98004.06;119851;1144;65129;-90
2020/12/24 04:58:46;;;;;;;3.53;2.10;;;;;;;10.05;78.47;97991.50;119864;1143;65152;-89
2020/12/24 05:01:18;;;;;;;6.47;2.47;;;;;;;9.93;78.15;97990.77;119887;1144;65104;-90
2020/12/24 05:03:45;;;;;;;3.20;2.57;;;;;;;9.83;78.53;97987.20;119838;1143;65095;-90
2020/12/24 05:06:16;;;;;;;6.30;3.27;;;;;;;9.75;78.19;97963.02;119826;1144;65495;-89
2020/12/24 05:08:56;;;;;;;4.47;2.67;;;;;;;9.67;78.61;97957.48;119861;1144;65200;-92
2020/12/24 05:11:28;;;;;;;4.83;2.13;;;;;;;9.57;78.18;97967.27;119959;1144;65086;-91
2020/12/24 05:14:15;;;;;;;6.90;2.10;;;;;;;9.51;78.25;97978.44;119890;1144;65283;-87
2020/12/24 05:17:05;;;;;;;5.10;2.90;;;;;;;9.48;78.57;97968.90;120089;1144;65185;-90
2020/12/24 05:19:34;;;;;;;5.83;3.40;;;;;;;9.51;78.49;97979.28;119937;1144;65091;-89
2020/12/24 05:22:16;;;;;;;8.77;3.93;;;;;;;9.52;78.24;97970.31;120193;1144;65693;-89
2020/12/24 05:24:43;;;;;;;7.70;3.80;;;;;;;9.53;78.46;97985.32;119915;1144;65175;-93
2020/12/24 05:27:20;;;;;;;9.95;4.20;;;;;;;9.51;78.50;97973.95;119859;1144;65101;-87
2020/12/24 05:29:52;;;;;;;9.70;4.40;;;;;;;9.52;78.99;97980.97;119892;1144;65073;-91
2020/12/24 05:32:27;;;;;;;9.80;4.30;;;;;;;9.53;78.36;97984.48;120194;1144;65232;-89
2020/12/24 05:35:07;;;;;;;11.03;4.97;;;;;;;9.52;78.51;97990.78;119919;1144;65082;-91
2020/12/24 05:37:34;;;;;;;10.73;4.47;;;;;;;9.52;78.51;97996.12;119973;1144;65111;-89
2020/12/24 05:40:26;;;;;;;5.97;3.37;;;;;;;9.54;79.09;97996.82;120139;1144;65089;-87
2020/12/24 05:42:59;;;;;;;5.60;3.20;;;;;;;9.58;78.36;97995.60;119973;1143;65110;-89
2020/12/24 05:45:29;;;;;;;5.33;2.70;;;;;;;9.63;78.33;98001.39;120272;1143;65111;-91
2020/12/24 05:48:14;;;;;;;5.50;2.60;;;;;;;9.65;79.05;97996.77;119858;1144;65059;-91
2020/12/24 05:50:44;;;;;;;3.70;2.30;;;;;;;9.70;78.27;98000.73;119845;1144;65089;-90
2020/12/24 05:53:12;;;;;;;3.87;2.30;;;;;;;9.71;78.28;97983.75;119945;1144;65130;-89
2020/12/24 05:55:40;;;;;;;3.45;2.10;;;;;;;9.69;78.23;97988.38;119740;1144;65258;-87
2020/12/24 05:58:08;;;;;;;6.83;2.30;;;;;;;9.68;78.84;97986.70;119703;1144;65191;-88
2020/12/24 06:00:40;;;;;;;3.90;2.40;;;;;;;9.67;78.43;97990.34;119543;1144;65088;-88
2020/12/24 06:03:15;;;;;;;3.70;2.00;;;;;;;9.68;78.43;97985.86;119770;1144;65079;-87
2020/12/24 06:05:55;;;;;;;3.90;2.40;;;;;;;9.70;78.13;97967.90;119683;1144;65088;-89
2020/12/24 06:08:29;;;;;;;6.07;2.63;;;;;;;9.72;78.24;97965.94;119631;1144;65198;-89
2020/12/24 06:11:02;;;;;;;4.37;2.20;;;;;;;9.72;78.24;97963.27;119868;1144;65101;-93
2020/12/24 06:13:37;;;;;;;5.60;2.23;;;;;;;9.71;78.22;97942.92;119880;1144;65100;-86
2020/12/24 06:16:05;;;;;;;5.80;2.55;;;;;;;9.70;78.28;97943.91;119865;1144;65073;-89
2020/12/24 06:18:34;;;;;;;4.13;2.23;;;;;;;9.67;78.81;97946.81;119898;1144;65056;-92
2020/12/24 06:21:01;;;;;;;4.03;2.40;;;;;;;9.65;78.54;97932.79;119956;1144;65081;-90
2020/12/24 06:23:33;;;;;;;6.45;2.70;;;;;;;9.61;78.40;97932.23;119933;1143;65091;-89
2020/12/24 06:26:03;;;;;;;7.00;3.47;;;;;;;9.62;78.11;97930.41;119752;1144;65179;-88
2020/12/24 06:28:33;;;;;;;6.80;3.17;;;;;;;9.65;78.75;97928.30;119959;1144;65111;-91
2020/12/24 06:31:01;;;;;;;5.10;2.60;;;;;;;9.71;78.21;97932.26;119911;1144;65047;-90
2020/12/24 06:33:29;;;;;;;3.35;2.15;;;;;;;9.77;78.15;97937.06;119932;1143;65124;-89
2020/12/24 06:35:57;;;;;;;4.50;2.60;;;;;;;9.83;77.95;97946.36;119953;1143;65018;-89
2020/12/24 06:38:44;;;;;;;3.97;2.27;;;;;;;9.84;77.93;97948.88;119936;1144;65149;-92
2020/12/24 06:41:28;;;;;;;4.73;2.00;;;;;;;9.88;78.39;97942.31;119971;1144;65175;-87
2020/12/24 06:43:55;;;;;;;8.73;4.87;;;;;;;9.88;77.78;97952.14;119973;1143;65182;-88
2020/12/24 06:46:22;;;;;;;4.63;2.90;;;;;;;9.86;78.40;97946.95;120863;1144;65178;-89
2020/12/24 06:49:03;;;;;;;5.80;3.40;;;;;;;9.84;77.67;97938.22;120021;1144;65088;-89
2020/12/24 06:51:49;;;;;;;3.13;1.90;;;;;;;9.83;78.01;97928.53;120013;1144;65084;-88
2020/12/24 06:54:20;;;;;;;2.83;2.13;;;;;;;9.84;77.73;97926.70;119956;1143;64972;-93
2020/12/24 06:56:47;;;;;;;5.23;2.40;;;;;;;9.82;78.03;97923.34;120036;1144;65226;-91
2020/12/24 06:59:33;;;;;;;2.65;1.80;;;;;;;9.77;77.66;97915.73;119742;1144;65474;-88
2020/12/24 07:02:02;;;;;;;5.10;2.33;;;;;;;9.74;78.45;97908.86;120002;1144;65018;-88
2020/12/24 07:04:39;;;;;;;4.60;2.35;;;;;;;9.71;77.92;97894.94;120042;1143;65158;-90
2020/12/24 07:07:08;;;;;;;3.27;2.03;;;;;;;9.68;78.31;97882.73;120050;1144;65006;-89
2020/12/24 07:09:40;;;;;;;3.60;2.40;;;;;;;9.68;77.77;97900.55;119920;1144;65125;-91
2020/12/24 07:12:06;;;;;;;2.65;1.85;;;;;;;9.70;77.88;97911.91;119851;1144;65177;-93
2020/12/24 07:14:40;;;;;;;2.60;1.90;;;;;;;9.71;77.57;97918.93;119785;1143;65015;-88
2020/12/24 07:17:10;;;;;;;4.60;2.33;;;;;;;9.72;77.71;97924.12;119772;1144;65552;-92
2020/12/24 07:19:41;;;;;;;6.53;3.40;;;;;;;9.72;77.72;97909.95;119984;1144;65124;-88
2020/12/24 07:22:13;;;;;;;5.60;2.63;;;;;;;9.73;77.75;97912.51;120081;1143;65089;-87
2020/12/24 07:24:40;;;;;;;7.03;3.53;;;;;;;9.72;77.56;97916.12;119907;1144;65198;-89
2020/12/24 07:27:07;;;;;;;8.77;4.57;;;;;;;9.73;77.65;97903.63;119863;1144;65133;-90
2020/12/24 07:29:35;;;;;;;7.57;3.90;;;;;;;9.77;77.59;97905.07;119912;1144;65131;-91
2020/12/24 07:32:06;;;;;;;7.30;4.60;;;;;;;9.82;78.19;97908.19;119814;1144;65082;-92
2020/12/24 07:34:37;;;;;;;6.00;3.75;;;;;;;9.87;77.40;97905.13;119882;1144;65140;-86
2020/12/24 07:37:05;;;;;;;6.23;2.80;;;;;;;9.91;77.37;97910.03;119936;1144;65214;-90
2020/12/24 07:39:32;;;;;;;3.83;2.57;;;;;;;9.95;77.27;97926.63;119864;1144;65082;-92
2020/12/24 07:41:59;;;;;;;4.23;2.20;;;;;;;10.02;77.33;97925.95;119889;1144;65123;-89
2020/12/24 07:44:26;;;;;;;3.93;2.10;;;;;;;10.08;77.18;97931.73;120068;1143;65179;-87
2020/12/24 07:47:01;;;;;;;2.35;1.50;;;;;;;10.12;76.96;97933.16;120331;1144;65149;-90
2020/12/24 07:49:27;;;;;;;4.77;2.13;;;;;;;10.13;77.05;97933.02;119863;1144;65040;-90
2020/12/24 07:51:56;;;;;;;3.17;2.00;;;;;;;10.13;76.55;97941.02;119842;1144;65104;-89
2020/12/24 07:54:30;;;;;;;4.30;2.00;;;;;;;10.14;77.01;97940.03;120254;1144;65182;-88
2020/12/24 07:56:57;;;;;;;2.97;1.67;;;;;;;10.14;76.94;97936.52;119912;1144;65082;-90
2020/12/24 07:59:24;;;;;;;5.23;1.50;;;;;;;10.11;76.48;97942.95;119840;1144;65018;-87
2020/12/24 08:01:51;;;;;;;3.30;1.65;;;;;;;10.12;76.63;97947.34;119855;1144;65050;-93
2020/12/24 08:04:18;;;;;;;2.93;2.00;;;;;;;10.11;76.98;97934.11;119967;1143;65086;-89
2020/12/24 08:06:44;;;;;;;4.90;2.40;;;;;;;10.09;77.09;97936.92;119920;1144;65168;-92
2020/12/24 08:09:18;;;;;;;10.50;4.57;;;;;;;10.04;76.81;97939.14;119942;1144;65111;-86
2020/12/24 08:11:55;;;;;;;6.40;3.53;;;;;;;10.02;77.16;97954.45;120008;1143;65055;-90
2020/12/24 08:14:22;;;;;;;4.40;2.20;;;;;;;10.01;76.55;97961.61;119927;1144;65173;-91
2020/12/24 08:16:50;;;;;;;3.80;2.67;;;;;;;9.98;76.40;97953.02;119952;1144;65082;-89
2020/12/24 08:19:30;;;;;;;4.00;2.73;;;;;;;9.97;76.64;97957.50;120600;1144;65198;-88
2020/12/24 08:22:04;;;;;;;6.23;3.30;;;;;;;9.95;77.08;97940.80;119994;1144;65525;-90
2020/12/24 08:24:33;;;;;;;4.67;2.87;;;;;;;9.92;76.93;97949.05;119828;1144;65153;-91
2020/12/24 08:27:00;;;;;;;6.95;3.90;;;;;;;9.90;76.26;97964.35;119946;1144;65203;-87
2020/12/24 08:29:27;;;;;;;7.63;4.13;;;;;;;9.92;75.98;97949.05;120094;1144;65117;-88
2020/12/24 08:31:54;;;;;;;6.13;2.90;;;;;;;9.93;76.26;97953.44;119872;1144;65131;-93
2020/12/24 08:34:22;;;;;;;11.97;3.33;;;;;;;9.94;76.26;97939.12;120076;1143;65183;-89
2020/12/24 08:36:50;;;;;;;8.03;3.27;;;;;;;9.94;75.89;97970.28;120479;1143;65177;-89
2020/12/24 08:39:19;;;;;;;9.23;4.10;;;;;;;9.94;75.61;97980.95;120052;1143;65054;-90
2020/12/24 08:41:57;;;;;;;10.30;5.83;;;;;;;9.91;75.82;97998.04;119776;1144;65107;-90
2020/12/24 08:44:25;;;;;;;10.95;6.45;;;;;;;9.87;75.98;97990.45;119826;1144;65014;-89
2020/12/24 08:47:06;;;;;;;9.87;5.17;;;;;;;9.84;75.25;97977.38;120053;1144;65069;-89
2020/12/24 08:49:42;;;;;;;8.47;3.87;;;;;;;9.77;74.98;97962.88;120026;1145;65098;-90
2020/12/24 08:52:23;;;;;;;8.83;4.07;;;;;;;9.73;75.23;97946.30;119850;1144;65163;-89
2020/12/24 08:54:57;;;;;;;7.85;4.50;;;;;;;9.68;75.70;97944.05;119884;1144;65090;-90
2020/12/24 08:57:25;;;;;;;9.20;4.30;;;;;;;9.65;75.31;97940.78;119878;1144;65151;-89
2020/12/24 08:59:58;;;;;;;8.10;3.63;;;;;;;9.63;75.41;97964.08;119909;1145;65014;-92
2020/12/24 09:02:32;;;;;;;11.65;5.65;;;;;;;9.60;75.50;97978.48;119901;1144;65012;-90
2020/12/24 09:05:01;;;;;;;10.70;5.60;;;;;;;9.59;74.29;97990.13;119938;1144;65159;-85
2020/12/24 09:07:30;;;;;;;9.77;5.00;;;;;;;9.60;75.81;97969.65;119847;1144;65197;-92
2020/12/24 09:10:17;;;;;;;5.63;3.67;;;;;;;9.64;74.91;97984.42;119957;1143;65271;-91
2020/12/24 09:12:54;;;;;;;6.20;3.57;;;;;;;9.69;74.63;97971.55;119893;1144;65204;-91
2020/12/24 09:15:26;;;;;;;4.97;3.33;;;;;;;9.75;74.79;97993.19;119870;1144;65066;-88
2020/12/24 09:17:55;;;;;;;6.75;2.65;;;;;;;9.79;73.86;97977.77;119886;1144;65306;-90
2020/12/24 09:20:26;;;;;;;6.80;3.30;;;;;;;9.84;73.79;97980.87;119917;1144;65044;-90
2020/12/24 09:22:55;;;;;;;3.70;1.73;;;;;;;9.87;72.78;97972.63;119901;1144;65085;-88
2020/12/24 09:25:32;;;;;;;2.70;1.85;;;;;;;9.87;74.09;97955.80;119955;1144;65133;-90
2020/12/24 09:27:59;;;;;;;4.60;2.37;;;;;;;9.83;74.02;97943.69;119897;1143;65169;-87
2020/12/24 09:30:25;;;;;;;4.37;2.47;;;;;;;9.77;74.33;97963.73;119817;1144;65200;-86
2020/12/24 09:32:57;;;;;;;2.15;1.25;;;;;;;9.60;74.09;97974.98;119883;1144;65086;-91
2020/12/24 09:35:24;;;;;;;7.83;2.30;;;;;;;9.21;74.11;97983.55;119806;1144;65070;-92
2020/12/24 09:37:53;;;;;;;5.47;2.50;;;;;;;8.91;74.35;97970.98;119909;1143;65497;-91
2020/12/24 09:40:21;;;;;;;3.93;1.83;;;;;;;8.69;72.82;97951.56;119961;1144;65015;-88
2020/12/24 09:42:48;;;;;;;4.03;2.10;;;;;;;8.54;74.61;97965.16;119821;1143;65213;-90
2020/12/24 09:45:18;;;;;;;4.67;1.50;;;;;;;8.42;74.15;97957.31;119885;1144;65114;-88
2020/12/24 09:47:46;;;;;;;3.63;2.37;;;;;;;8.34;75.09;97945.45;120211;1143;65071;-88
2020/12/24 09:50:14;;;;;;;3.67;2.57;;;;;;;8.29;74.90;97942.31;120141;1143;65127;-88
2020/12/24 09:52:40;;;;;;;5.87;2.77;;;;;;;8.29;74.90;97930.83;119952;1144;65069;-89
2020/12/24 09:55:08;;;;;;;7.05;3.50;;;;;;;8.31;75.52;97928.87;120042;1144;65006;-87
2020/12/24 09:57:35;;;;;;;5.40;3.07;;;;;;;8.29;75.37;97926.35;120055;1144;64987;-88
2020/12/24 10:00:08;;;;;;;4.43;2.97;;;;;;;8.29;75.20;97925.51;119835;1144;65088;-88
2020/12/24 10:02:37;;;;;;;5.83;2.80;;;;;;;8.27;75.29;97925.64;119918;1144;65168;-89
2020/12/24 10:05:06;;;;;;;7.07;3.10;;;;;;;8.27;75.09;97922.98;119890;1143;65191;-86
2020/12/24 10:07:34;;;;;;;6.57;3.73;;;;;;;8.31;75.58;97913.77;120020;1144;65320;-88
2020/12/24 10:10:07;;;;;;;9.27;4.20;;;;;;;8.31;74.51;97916.42;119922;1144;65146;-87
2020/12/24 10:12:37;;;;;;;19.80;9.30;;;;;;;8.34;74.54;97902.89;120116;1144;65188;-92
2020/12/24 10:15:04;;;;;;;14.13;7.10;;;;;;;8.34;75.34;97907.37;120241;1143;65036;-88
2020/12/24 10:17:30;;;;;;;23.13;10.53;;;;;;;8.32;75.24;97914.61;120013;1144;65086;-90
2020/12/24 10:19:57;;;;;;;19.30;9.23;;;;;;;8.37;75.33;97913.30;119938;1144;65232;-90
2020/12/24 10:22:24;;;;;;;18.03;8.67;;;;;;;8.45;75.42;97917.14;119890;1144;65084;-88
2020/12/24 10:24:51;;;;;;;23.27;9.37;;;;;;;8.46;75.47;97917.05;119924;1144;65191;-89
2020/12/24 10:27:21;;;;;;;20.73;7.23;;;;;;;8.39;75.13;97926.47;120277;1143;65207;-89
2020/12/24 10:29:48;;;;;;;24.27;8.20;;;;;;;8.29;75.63;97931.67;119907;1143;65095;-88
2020/12/24 10:32:14;;;;;;;34.50;12.33;;;;;;;8.19;75.45;97929.86;119880;1144;65247;-88
2020/12/24 10:34:41;;;;;;;24.80;9.20;;;;;;;8.11;75.33;97917.19;119927;1143;65121;-88
2020/12/24 10:37:07;;;;;;;36.40;11.97;;;;;;;8.07;75.42;97916.58;119834;1143;65222;-90
2020/12/24 10:39:34;;;;;;;23.00;10.00;;;;;;;8.09;75.16;97919.98;119866;1143;65190;-91
2020/12/24 10:42:00;;;;;;;13.67;7.03;;;;;;;8.17;75.24;97915.86;119891;1144;65092;-87
2020/12/24 10:44:28;;;;;;;13.10;6.35;;;;;;;8.28;75.29;97919.34;119892;1144;65124;-90
2020/12/24 10:46:58;;;;;;;11.70;6.10;;;;;;;8.39;74.74;97908.69;119880;1144;65019;-89
2020/12/24 10:49:26;;;;;;;14.37;6.57;;;;;;;8.48;74.58;97909.77;120429;1144;65040;-87
2020/12/24 10:51:53;;;;;;;13.73;6.10;;;;;;;8.57;74.51;97905.50;120031;1144;65085;-87
2020/12/24 10:54:20;;;;;;;10.87;5.40;;;;;;;8.66;74.33;97886.13;120085;1144;65104;-86
2020/12/24 10:56:48;;;;;;;16.70;6.97;;;;;;;8.75;73.94;97876.53;119986;1144;65158;-88
2020/12/24 10:59:16;;;;;;;11.93;5.67;;;;;;;8.83;72.99;97852.77;120065;1144;65089;-91
2020/12/24 11:01:48;;;;;;;9.13;4.23;;;;;;;8.87;73.63;97867.52;120063;1144;65104;-88
2020/12/24 11:04:17;;;;;;;11.47;4.43;;;;;;;8.91;73.76;97871.62;120221;1143;65199;-87
2020/12/24 11:06:45;;;;;;;8.10;4.25;;;;;;;8.94;73.08;97874.02;120040;1143;65091;-89
2020/12/24 11:09:13;;;;;;;7.53;3.50;;;;;;;8.98;72.49;97885.27;120079;1144;65585;-87
2020/12/24 11:11:40;;;;;;;5.33;2.50;;;;;;;9.02;73.04;97887.52;120077;1144;65070;-88
2020/12/24 11:14:07;;;;;;;8.37;2.93;;;;;;;8.99;73.29;97877.14;120030;1143;65079;-88
2020/12/24 11:16:34;;;;;;;6.33;3.70;;;;;;;9.00;73.31;97877.98;120400;1143;65089;-87
2020/12/24 11:19:00;;;;;;;7.90;3.50;;;;;;;9.17;73.69;97866.75;120093;1143;65063;-88
2020/12/24 11:21:31;;;;;;;9.33;3.90;;;;;;;9.34;73.98;97867.95;120068;1143;65181;-88
2020/12/24 11:24:04;;;;;;;6.87;3.53;;;;;;;9.47;73.33;97861.42;119957;1144;65094;-89
2020/12/24 11:26:31;;;;;;;6.90;3.87;;;;;;;9.57;73.32;97860.65;119967;1144;65089;-87
2020/12/24 11:28:58;;;;;;;11.23;3.50;;;;;;;9.66;71.56;97849.17;119863;1144;65178;-89
2020/12/24 11:31:30;;;;;;;8.07;4.53;;;;;;;9.78;72.45;97857.92;119885;1144;65095;-93
2020/12/24 11:33:57;;;;;;;15.97;7.37;;;;;;;9.91;73.55;97853.19;119990;1144;65260;-88
2020/12/24 11:36:25;;;;;;;11.53;5.07;;;;;;;10.02;73.24;97853.94;120025;1144;65118;-89